sensor_id;sensor_type;location;lat;lon;timestamp;pressure;altitude;pressure_sealevel;temperature;humidity
10510;BME280;5303;53.266;10.410;2023-01-29T00:01:06;102431.72;;;4.13;100.00
10510;BME280;5303;53.266;10.410;2023-01-29T00:03:32;102431.50;;;4.02;100.00
10510;BME280;5303;53.266;10.410;2023-01-29T00:05:58;102430.47;;;4.05;100.00
10510;BME280;5303;53.266;10.410;2023-01-29T00:08:23;102435.38;;;4.12;100.00
10510;BME280;5303;53.266;10.410;2023-01-29T00:10:48;102424.88;;;4.08;100.00
10510;BME280;5303;53.266;10.410;2023-01-29T00:13:14;102435.09;;;4.17;100.00
10510;BME280;5303;53.266;10.410;2023-01-29T00:15:39;102436.16;;;4.14;100.00
10510;BME280;5303;53.266;10.410;2023-01-29T00:18:04;102432.31;;;4.18;100.00
10510;BME280;5303;53.266;10.410;2023-01-29T00:20:30;102443.97;;;4.19;100.00
10510;BME280;5303;53.266;10.410;2023-01-29T00:22:55;102440.41;;;4.18;100.00
10510;BME280;5303;53.266;10.410;2023-01-29T00:25:21;102437.91;;;4.15;100.00
10510;BME280;5303;53.266;10.410;2023-01-29T00:27:46;102431.16;;;4.23;100.00
10510;BME280;5303;53.266;10.410;2023-01-29T00:30:12;102426.00;;;4.04;100.00
10510;BME280;5303;53.266;10.410;2023-01-29T00:32:40;102416.19;;;4.03;100.00
10510;BME280;5303;53.266;10.410;2023-01-29T00:35:07;102414.50;;;4.16;100.00
10510;BME280;5303;53.266;10.410;2023-01-29T00:37:32;102411.00;;;4.14;100.00
10510;BME280;5303;53.266;10.410;2023-01-29T00:39:58;102400.69;;;4.06;100.00
10510;BME280;5303;53.266;10.410;2023-01-29T00:42:23;102405.28;;;3.90;100.00
10510;BME280;5303;53.266;10.410;2023-01-29T00:45:09;102396.94;;;4.09;100.00
10510;BME280;5303;53.266;10.410;2023-01-29T00:47:34;102396.28;;;4.05;100.00
10510;BME280;5303;53.266;10.410;2023-01-29T00:50:01;102385.06;;;3.97;100.00
10510;BME280;5303;53.266;10.410;2023-01-29T00:52:28;102388.13;;;3.91;100.00
10510;BME280;5303;53.266;10.410;2023-01-29T00:54:57;102388.88;;;4.09;100.00
10510;BME280;5303;53.266;10.410;2023-01-29T00:57:25;102395.13;;;4.09;100.00
10510;BME280;5303;53.266;10.410;2023-01-29T00:59:51;102387.44;;;4.17;100.00
10510;BME280;5303;53.266;10.410;2023-01-29T01:02:17;102388.19;;;4.05;100.00
10510;BME280;5303;53.266;10.410;2023-01-29T01:05:01;102386.41;;;4.04;100.00
10510;BME280;5303;53.266;10.410;2023-01-29T01:07:27;102383.69;;;3.90;100.00
10510;BME280;5303;53.266;10.410;2023-01-29T01:09:52;102387.03;;;4.09;100.00
10510;BME280;5303;53.266;10.410;2023-01-29T01:12:36;102383.47;;;4.09;100.00
10510;BME280;5303;53.266;10.410;2023-01-29T01:15:01;102385.13;;;4.11;100.00
10510;BME280;5303;53.266;10.410;2023-01-29T01:17:27;102390.78;;;4.07;100.00
10510;BME280;5303;53.266;10.410;2023-01-29T01:19:52;102382.34;;;4.27;100.00
10510;BME280;5303;53.266;10.410;2023-01-29T01:22:17;102396.72;;;4.28;100.00
10510;BME280;5303;53.266;10.410;2023-01-29T01:24:43;102386.56;;;4.17;100.00
10510;BME280;5303;53.266;10.410;2023-01-29T01:27:08;102389.97;;;4.20;100.00
10510;BME280;5303;53.266;10.410;2023-01-29T01:29:33;102389.75;;;4.24;100.00
10510;BME280;5303;53.266;10.410;2023-01-29T01:31:59;102395.41;;;4.05;100.00
10510;BME280;5303;53.266;10.410;2023-01-29T01:34:24;102394.75;;;4.15;100.00
10510;BME280;5303;53.266;10.410;2023-01-29T01:36:51;102401.47;;;4.08;100.00
10510;BME280;5303;53.266;10.410;2023-01-29T01:39:16;102396.09;;;4.23;100.00
10510;BME280;5303;53.266;10.410;2023-01-29T01:41:42;102388.56;;;4.13;100.00
10510;BME280;5303;53.266;10.410;2023-01-29T01:47:11;102395.06;;;4.25;100.00
10510;BME280;5303;53.266;10.410;2023-01-29T01:49:36;102383.47;;;4.23;100.00
10510;BME280;5303;53.266;10.410;2023-01-29T01:52:02;102383.97;;;4.15;100.00
10510;BME280;5303;53.266;10.410;2023-01-29T01:54:29;102384.16;;;4.27;100.00
10510;BME280;5303;53.266;10.410;2023-01-29T01:56:59;102395.91;;;4.26;100.00
10510;BME280;5303;53.266;10.410;2023-01-29T01:59:34;102408.94;;;4.33;100.00
10510;BME280;5303;53.266;10.410;2023-01-29T02:02:01;102406.16;;;4.35;100.00
10510;BME280;5303;53.266;10.410;2023-01-29T02:04:47;102392.47;;;4.38;100.00
10510;BME280;5303;53.266;10.410;2023-01-29T02:07:32;102394.13;;;4.40;100.00
10510;BME280;5303;53.266;10.410;2023-01-29T02:10:17;102390.63;;;4.38;100.00
10510;BME280;5303;53.266;10.410;2023-01-29T02:12:44;102398.06;;;4.35;100.00
10510;BME280;5303;53.266;10.410;2023-01-29T02:15:10;102392.84;;;4.46;100.00
10510;BME280;5303;53.266;10.410;2023-01-29T02:17:36;102396.72;;;4.42;100.00
10510;BME280;5303;53.266;10.410;2023-01-29T02:20:13;102381.31;;;4.44;100.00
10510;BME280;5303;53.266;10.410;2023-01-29T02:39:16;102365.31;;;4.41;100.00
10510;BME280;5303;53.266;10.410;2023-01-29T02:42:00;102361.06;;;4.37;100.00
10510;BME280;5303;53.266;10.410;2023-01-29T02:44:36;102364.03;;;4.32;100.00
10510;BME280;5303;53.266;10.410;2023-01-29T02:50:02;102370.09;;;4.22;100.00
10510;BME280;5303;53.266;10.410;2023-01-29T02:55:06;102363.63;;;4.10;100.00
10510;BME280;5303;53.266;10.410;2023-01-29T02:57:37;102363.38;;;4.29;100.00
10510;BME280;5303;53.266;10.410;2023-01-29T03:00:10;102355.09;;;4.32;100.00
10510;BME280;5303;53.266;10.410;2023-01-29T03:03:03;102360.28;;;4.35;100.00
10510;BME280;5303;53.266;10.410;2023-01-29T03:05:38;102355.06;;;4.46;100.00
10510;BME280;5303;53.266;10.410;2023-01-29T03:08:10;102351.22;;;4.36;100.00
10510;BME280;5303;53.266;10.410;2023-01-29T03:10:43;102337.84;;;4.34;100.00
10510;BME280;5303;53.266;10.410;2023-01-29T03:13:18;102332.06;;;4.40;100.00
10510;BME280;5303;53.266;10.410;2023-01-29T03:15:48;102332.84;;;4.28;100.00
10510;BME280;5303;53.266;10.410;2023-01-29T03:18:22;102322.13;;;4.27;100.00
10510;BME280;5303;53.266;10.410;2023-01-29T03:20:54;102324.25;;;4.36;100.00
10510;BME280;5303;53.266;10.410;2023-01-29T03:23:31;102315.41;;;4.34;100.00
10510;BME280;5303;53.266;10.410;2023-01-29T03:26:18;102306.16;;;4.38;100.00
10510;BME280;5303;53.266;10.410;2023-01-29T03:29:04;102313.56;;;4.34;100.00
10510;BME280;5303;53.266;10.410;2023-01-29T03:31:51;102308.34;;;4.17;100.00
10510;BME280;5303;53.266;10.410;2023-01-29T03:34:39;102306.84;;;4.27;100.00
10510;BME280;5303;53.266;10.410;2023-01-29T03:37:20;102304.22;;;4.26;100.00
10510;BME280;5303;53.266;10.410;2023-01-29T03:39:48;102297.56;;;4.31;100.00
10510;BME280;5303;53.266;10.410;2023-01-29T03:42:32;102287.25;;;4.24;100.00
10510;BME280;5303;53.266;10.410;2023-01-29T03:45:08;102291.22;;;4.18;100.00
10510;BME280;5303;53.266;10.410;2023-01-29T03:47:45;102294.28;;;4.26;100.00
10510;BME280;5303;53.266;10.410;2023-01-29T03:50:31;102286.69;;;4.18;100.00
10510;BME280;5303;53.266;10.410;2023-01-29T03:55:41;102281.50;;;4.15;100.00
10510;BME280;5303;53.266;10.410;2023-01-29T04:00:44;102283.13;;;4.18;100.00
10510;BME280;5303;53.266;10.410;2023-01-29T04:03:22;102276.88;;;4.17;100.00
10510;BME280;5303;53.266;10.410;2023-01-29T04:05:54;102294.19;;;4.13;100.00
10510;BME280;5303;53.266;10.410;2023-01-29T04:08:28;102281.88;;;4.09;100.00
10510;BME280;5303;53.266;10.410;2023-01-29T04:10:56;102271.47;;;4.03;100.00
10510;BME280;5303;53.266;10.410;2023-01-29T04:13:23;102269.53;;;4.19;100.00
10510;BME280;5303;53.266;10.410;2023-01-29T04:15:53;102266.34;;;4.13;100.00
10510;BME280;5303;53.266;10.410;2023-01-29T04:18:19;102270.03;;;4.12;100.00
10510;BME280;5303;53.266;10.410;2023-01-29T04:20:45;102263.00;;;4.09;100.00
10510;BME280;5303;53.266;10.410;2023-01-29T04:23:24;102262.81;;;4.12;100.00
10510;BME280;5303;53.266;10.410;2023-01-29T04:26:17;102266.66;;;4.08;100.00
10510;BME280;5303;53.266;10.410;2023-01-29T04:31:58;102264.53;;;3.99;100.00
10510;BME280;5303;53.266;10.410;2023-01-29T04:34:37;102255.09;;;3.92;100.00
10510;BME280;5303;53.266;10.410;2023-01-29T04:37:11;102257.31;;;3.85;100.00
10510;BME280;5303;53.266;10.410;2023-01-29T04:40:04;102259.88;;;4.01;100.00
10510;BME280;5303;53.266;10.410;2023-01-29T04:43:04;102255.28;;;4.03;100.00
10510;BME280;5303;53.266;10.410;2023-01-29T04:52:03;102264.22;;;4.04;100.00
10510;BME280;5303;53.266;10.410;2023-01-29T04:56:55;102266.94;;;3.89;100.00
10510;BME280;5303;53.266;10.410;2023-01-29T04:59:34;102268.88;;;4.02;100.00
10510;BME280;5303;53.266;10.410;2023-01-29T05:02:01;102275.50;;;4.10;100.00
10510;BME280;5303;53.266;10.410;2023-01-29T05:04:30;102280.53;;;4.02;100.00
10510;BME280;5303;53.266;10.410;2023-01-29T05:06:59;102291.00;;;4.07;100.00
10510;BME280;5303;53.266;10.410;2023-01-29T05:09:26;102282.72;;;3.95;100.00
10510;BME280;5303;53.266;10.410;2023-01-29T05:11:51;102280.53;;;4.02;100.00
10510;BME280;5303;53.266;10.410;2023-01-29T05:14:18;102276.84;;;4.03;100.00
10510;BME280;5303;53.266;10.410;2023-01-29T05:16:50;102278.75;;;3.87;100.00
10510;BME280;5303;53.266;10.410;2023-01-29T05:19:16;102285.69;;;3.91;100.00
10510;BME280;5303;53.266;10.410;2023-01-29T05:21:44;102294.06;;;4.01;100.00
10510;BME280;5303;53.266;10.410;2023-01-29T05:24:17;102280.78;;;3.97;100.00
10510;BME280;5303;53.266;10.410;2023-01-29T05:26:44;102277.72;;;4.04;100.00
10510;BME280;5303;53.266;10.410;2023-01-29T05:29:29;102277.78;;;3.88;100.00
10510;BME280;5303;53.266;10.410;2023-01-29T05:31:54;102276.25;;;3.84;100.00
10510;BME280;5303;53.266;10.410;2023-01-29T05:34:20;102272.81;;;3.96;100.00
10510;BME280;5303;53.266;10.410;2023-01-29T05:36:45;102279.16;;;3.95;100.00
10510;BME280;5303;53.266;10.410;2023-01-29T05:39:10;102261.72;;;3.86;100.00
10510;BME280;5303;53.266;10.410;2023-01-29T05:41:35;102265.09;;;3.90;100.00
10510;BME280;5303;53.266;10.410;2023-01-29T05:44:01;102268.94;;;3.86;100.00
10510;BME280;5303;53.266;10.410;2023-01-29T05:46:26;102253.91;;;3.82;100.00
10510;BME280;5303;53.266;10.410;2023-01-29T05:48:52;102256.53;;;3.83;100.00
10510;BME280;5303;53.266;10.410;2023-01-29T05:51:17;102255.09;;;3.92;100.00
10510;BME280;5303;53.266;10.410;2023-01-29T05:53:42;102260.88;;;4.00;100.00
10510;BME280;5303;53.266;10.410;2023-01-29T05:56:07;102261.53;;;3.89;100.00
10510;BME280;5303;53.266;10.410;2023-01-29T05:58:33;102259.31;;;3.96;100.00
10510;BME280;5303;53.266;10.410;2023-01-29T06:01:13;102251.91;;;4.00;100.00
10510;BME280;5303;53.266;10.410;2023-01-29T06:03:39;102262.41;;;3.90;100.00
10510;BME280;5303;53.266;10.410;2023-01-29T06:06:04;102248.13;;;3.88;100.00
10510;BME280;5303;53.266;10.410;2023-01-29T06:08:30;102252.78;;;4.00;100.00
10510;BME280;5303;53.266;10.410;2023-01-29T06:10:55;102260.31;;;3.95;100.00
10510;BME280;5303;53.266;10.410;2023-01-29T06:13:20;102252.97;;;3.83;100.00
10510;BME280;5303;53.266;10.410;2023-01-29T06:15:45;102247.56;;;3.83;100.00
10510;BME280;5303;53.266;10.410;2023-01-29T06:18:11;102267.50;;;3.94;100.00
10510;BME280;5303;53.266;10.410;2023-01-29T06:20:36;102280.78;;;3.97;100.00
10510;BME280;5303;53.266;10.410;2023-01-29T06:23:02;102297.94;;;3.96;100.00
10510;BME280;5303;53.266;10.410;2023-01-29T06:25:27;102290.44;;;4.02;100.00
10510;BME280;5303;53.266;10.410;2023-01-29T06:27:52;102286.00;;;4.01;100.00
10510;BME280;5303;53.266;10.410;2023-01-29T06:30:18;102294.84;;;4.03;100.00
10510;BME280;5303;53.266;10.410;2023-01-29T06:32:43;102273.47;;;3.85;100.00
10510;BME280;5303;53.266;10.410;2023-01-29T06:35:08;102269.69;;;3.88;100.00
10510;BME280;5303;53.266;10.410;2023-01-29T06:37:34;102258.47;;;3.95;100.00
10510;BME280;5303;53.266;10.410;2023-01-29T06:40:00;102252.78;;;4.00;100.00
10510;BME280;5303;53.266;10.410;2023-01-29T06:42:25;102238.13;;;4.04;100.00
10510;BME280;5303;53.266;10.410;2023-01-29T06:44:53;102235.25;;;4.07;100.00
10510;BME280;5303;53.266;10.410;2023-01-29T06:47:19;102246.63;;;3.98;100.00
10510;BME280;5303;53.266;10.410;2023-01-29T06:49:44;102252.03;;;3.98;100.00
10510;BME280;5303;53.266;10.410;2023-01-29T06:52:09;102243.81;;;4.00;100.00
10510;BME280;5303;53.266;10.410;2023-01-29T06:54:34;102238.25;;;4.03;100.00
10510;BME280;5303;53.266;10.410;2023-01-29T06:57:00;102248.91;;;4.04;100.00
10510;BME280;5303;53.266;10.410;2023-01-29T06:59:25;102237.84;;;4.09;100.00
10510;BME280;5303;53.266;10.410;2023-01-29T07:01:50;102224.06;;;4.13;100.00
10510;BME280;5303;53.266;10.410;2023-01-29T07:04:15;102214.34;;;4.11;100.00
10510;BME280;5303;53.266;10.410;2023-01-29T07:06:41;102208.56;;;4.17;100.00
10510;BME280;5303;53.266;10.410;2023-01-29T07:09:06;102213.59;;;4.09;100.00
10510;BME280;5303;53.266;10.410;2023-01-29T07:11:33;102201.56;;;4.14;100.00
10510;BME280;5303;53.266;10.410;2023-01-29T07:13:59;102196.06;;;4.16;100.00
10510;BME280;5303;53.266;10.410;2023-01-29T07:16:24;102198.16;;;4.11;100.00
10510;BME280;5303;53.266;10.410;2023-01-29T07:18:50;102190.78;;;4.14;100.00
10510;BME280;5303;53.266;10.410;2023-01-29T07:21:15;102192.03;;;4.09;100.00
10510;BME280;5303;53.266;10.410;2023-01-29T07:23:41;102191.25;;;4.07;100.00
10510;BME280;5303;53.266;10.410;2023-01-29T07:26:06;102184.22;;;4.04;100.00
10510;BME280;5303;53.266;10.410;2023-01-29T07:28:36;102187.28;;;4.12;100.00
10510;BME280;5303;53.266;10.410;2023-01-29T07:31:02;102183.22;;;4.19;100.00
10510;BME280;5303;53.266;10.410;2023-01-29T07:33:28;102180.66;;;4.04;100.00
10510;BME280;5303;53.266;10.410;2023-01-29T07:35:53;102178.53;;;4.09;100.00
10510;BME280;5303;53.266;10.410;2023-01-29T07:38:18;102176.50;;;4.12;100.00
10510;BME280;5303;53.266;10.410;2023-01-29T07:40:44;102185.38;;;4.00;100.00
10510;BME280;5303;53.266;10.410;2023-01-29T07:43:09;102186.63;;;4.09;100.00
10510;BME280;5303;53.266;10.410;2023-01-29T07:45:37;102192.38;;;4.17;100.00
10510;BME280;5303;53.266;10.410;2023-01-29T07:48:03;102195.19;;;4.15;100.00
10510;BME280;5303;53.266;10.410;2023-01-29T07:50:30;102189.00;;;4.13;100.00
10510;BME280;5303;53.266;10.410;2023-01-29T07:52:56;102176.59;;;4.11;100.00
10510;BME280;5303;53.266;10.410;2023-01-29T07:55:22;102167.84;;;4.07;100.00
10510;BME280;5303;53.266;10.410;2023-01-29T07:57:54;102174.78;;;3.97;100.00
10510;BME280;5303;53.266;10.410;2023-01-29T08:00:20;102156.50;;;4.02;100.00
10510;BME280;5303;53.266;10.410;2023-01-29T08:02:45;102159.34;;;4.13;100.00
10510;BME280;5303;53.266;10.410;2023-01-29T08:05:10;102159.88;;;4.06;100.00
10510;BME280;5303;53.266;10.410;2023-01-29T08:07:36;102150.69;;;4.23;100.00
10510;BME280;5303;53.266;10.410;2023-01-29T08:10:01;102158.03;;;4.20;100.00
10510;BME280;5303;53.266;10.410;2023-01-29T08:12:26;102153.75;;;4.16;100.00
10510;BME280;5303;53.266;10.410;2023-01-29T08:14:52;102149.34;;;4.15;100.00
10510;BME280;5303;53.266;10.410;2023-01-29T08:17:17;102150.28;;;4.29;100.00
10510;BME280;5303;53.266;10.410;2023-01-29T08:19:42;102145.19;;;4.24;100.00
10510;BME280;5303;53.266;10.410;2023-01-29T08:22:07;102141.75;;;4.08;100.00
10510;BME280;5303;53.266;10.410;2023-01-29T08:24:33;102143.38;;;4.25;100.00
10510;BME280;5303;53.266;10.410;2023-01-29T08:26:58;102134.81;;;4.18;100.00
10510;BME280;5303;53.266;10.410;2023-01-29T08:29:23;102145.41;;;4.21;100.00
10510;BME280;5303;53.266;10.410;2023-01-29T08:31:48;102131.31;;;4.30;100.00
10510;BME280;5303;53.266;10.410;2023-01-29T08:34:14;102141.16;;;4.17;100.00
10510;BME280;5303;53.266;10.410;2023-01-29T08:36:39;102141.41;;;4.27;100.00
10510;BME280;5303;53.266;10.410;2023-01-29T08:39:04;102142.38;;;4.26;100.00
10510;BME280;5303;53.266;10.410;2023-01-29T08:41:30;102153.34;;;4.37;100.00
10510;BME280;5303;53.266;10.410;2023-01-29T08:43:55;102156.72;;;4.40;100.00
10510;BME280;5303;53.266;10.410;2023-01-29T08:46:21;102153.03;;;4.41;100.00
10510;BME280;5303;53.266;10.410;2023-01-29T08:48:47;102144.28;;;4.38;100.00
10510;BME280;5303;53.266;10.410;2023-01-29T08:51:12;102148.38;;;4.58;100.00
10510;BME280;5303;53.266;10.410;2023-01-29T08:53:37;102153.81;;;4.43;100.00
10510;BME280;5303;53.266;10.410;2023-01-29T08:56:03;102156.78;;;4.53;100.00
10510;BME280;5303;53.266;10.410;2023-01-29T08:58:28;102158.50;;;4.54;100.00
10510;BME280;5303;53.266;10.410;2023-01-29T09:00:53;102162.22;;;4.66;100.00
10510;BME280;5303;53.266;10.410;2023-01-29T09:03:18;102163.09;;;4.66;100.00
10510;BME280;5303;53.266;10.410;2023-01-29T09:05:44;102166.91;;;4.77;100.00
10510;BME280;5303;53.266;10.410;2023-01-29T09:08:11;102163.91;;;4.94;100.00
10510;BME280;5303;53.266;10.410;2023-01-29T09:10:36;102158.63;;;4.93;100.00
10510;BME280;5303;53.266;10.410;2023-01-29T09:13:01;102166.41;;;4.97;100.00
10510;BME280;5303;53.266;10.410;2023-01-29T09:15:27;102158.97;;;5.01;100.00
10510;BME280;5303;53.266;10.410;2023-01-29T09:17:52;102161.91;;;4.98;100.00
10510;BME280;5303;53.266;10.410;2023-01-29T09:20:18;102162.34;;;5.04;100.00
10510;BME280;5303;53.266;10.410;2023-01-29T09:22:44;102157.41;;;5.11;100.00
10510;BME280;5303;53.266;10.410;2023-01-29T09:25:10;102156.25;;;5.01;100.00
10510;BME280;5303;53.266;10.410;2023-01-29T09:27:36;102161.16;;;5.08;100.00
10510;BME280;5303;53.266;10.410;2023-01-29T09:30:02;102163.00;;;5.08;100.00
10510;BME280;5303;53.266;10.410;2023-01-29T09:32:28;102156.75;;;5.20;100.00
10510;BME280;5303;53.266;10.410;2023-01-29T09:34:55;102154.13;;;5.06;100.00
10510;BME280;5303;53.266;10.410;2023-01-29T09:37:21;102152.53;;;5.29;100.00
10510;BME280;5303;53.266;10.410;2023-01-29T09:39:47;102156.13;;;5.42;100.00
10510;BME280;5303;53.266;10.410;2023-01-29T09:47:19;102141.94;;;5.13;100.00
10510;BME280;5303;53.266;10.410;2023-01-29T09:50:00;102141.09;;;5.25;100.00
10510;BME280;5303;53.266;10.410;2023-01-29T09:52:34;102127.28;;;5.30;100.00
10510;BME280;5303;53.266;10.410;2023-01-29T09:55:11;102118.72;;;5.36;100.00
10510;BME280;5303;53.266;10.410;2023-01-29T09:57:58;102118.06;;;5.20;100.00
10510;BME280;5303;53.266;10.410;2023-01-29T10:08:45;102102.06;;;5.68;100.00
10510;BME280;5303;53.266;10.410;2023-01-29T10:16:50;102087.81;;;5.53;100.00
10510;BME280;5303;53.266;10.410;2023-01-29T10:22:51;102084.88;;;5.69;100.00
10510;BME280;5303;53.266;10.410;2023-01-29T10:25:21;102082.28;;;5.67;100.00
10510;BME280;5303;53.266;10.410;2023-01-29T10:27:50;102077.19;;;5.75;100.00
10510;BME280;5303;53.266;10.410;2023-01-29T10:30:20;102064.00;;;5.71;100.00
10510;BME280;5303;53.266;10.410;2023-01-29T10:32:47;102060.00;;;5.76;100.00
10510;BME280;5303;53.266;10.410;2023-01-29T10:35:22;102062.28;;;5.70;100.00
10510;BME280;5303;53.266;10.410;2023-01-29T10:37:51;102058.16;;;5.64;100.00
10510;BME280;5303;53.266;10.410;2023-01-29T10:40:49;102056.66;;;5.73;100.00
10510;BME280;5303;53.266;10.410;2023-01-29T10:43:26;102054.16;;;5.70;100.00
10510;BME280;5303;53.266;10.410;2023-01-29T10:48:33;102042.84;;;5.52;100.00
10510;BME280;5303;53.266;10.410;2023-01-29T10:51:34;102040.22;;;5.63;100.00
10510;BME280;5303;53.266;10.410;2023-01-29T10:57:08;102019.78;;;5.72;100.00
10510;BME280;5303;53.266;10.410;2023-01-29T11:02:18;102013.03;;;5.77;100.00
10510;BME280;5303;53.266;10.410;2023-01-29T11:04:45;102016.16;;;5.84;100.00
10510;BME280;5303;53.266;10.410;2023-01-29T11:07:12;102002.13;;;5.79;100.00
10510;BME280;5303;53.266;10.410;2023-01-29T11:09:53;102018.00;;;5.96;100.00
10510;BME280;5303;53.266;10.410;2023-01-29T11:12:23;102010.28;;;6.03;100.00
10510;BME280;5303;53.266;10.410;2023-01-29T11:15:17;102003.91;;;6.04;100.00
10510;BME280;5303;53.266;10.410;2023-01-29T11:18:06;102002.75;;;5.95;100.00
10510;BME280;5303;53.266;10.410;2023-01-29T11:20:35;102007.09;;;5.85;100.00
10510;BME280;5303;53.266;10.410;2023-01-29T11:23:00;102009.78;;;5.98;100.00
10510;BME280;5303;53.266;10.410;2023-01-29T11:25:26;102001.22;;;6.04;100.00
10510;BME280;5303;53.266;10.410;2023-01-29T11:27:59;102008.25;;;5.81;100.00
10510;BME280;5303;53.266;10.410;2023-01-29T11:30:30;102000.25;;;5.92;100.00
10510;BME280;5303;53.266;10.410;2023-01-29T11:33:06;102003.59;;;5.96;100.00
10510;BME280;5303;53.266;10.410;2023-01-29T11:35:33;101987.38;;;5.96;100.00
10510;BME280;5303;53.266;10.410;2023-01-29T11:40:40;101994.63;;;5.95;100.00
10510;BME280;5303;53.266;10.410;2023-01-29T11:43:32;101998.44;;;5.93;100.00
10510;BME280;5303;53.266;10.410;2023-01-29T11:46:05;101991.81;;;5.84;100.00
10510;BME280;5303;53.266;10.410;2023-01-29T11:48:46;101983.25;;;5.90;100.00
10510;BME280;5303;53.266;10.410;2023-01-29T11:51:25;101984.44;;;5.99;100.00
10510;BME280;5303;53.266;10.410;2023-01-29T11:53:54;101974.03;;;6.05;100.00
10510;BME280;5303;53.266;10.410;2023-01-29T11:56:26;101973.44;;;5.89;100.00
10510;BME280;5303;53.266;10.410;2023-01-29T11:58:54;101958.06;;;5.90;100.00
10510;BME280;5303;53.266;10.410;2023-01-29T12:01:40;101941.28;;;6.21;100.00
10510;BME280;5303;53.266;10.410;2023-01-29T12:06:43;101939.03;;;6.15;100.00
10510;BME280;5303;53.266;10.410;2023-01-29T12:09:14;101927.88;;;6.20;100.00
10510;BME280;5303;53.266;10.410;2023-01-29T12:11:41;101924.03;;;6.22;100.00
10510;BME280;5303;53.266;10.410;2023-01-29T12:14:26;101921.56;;;6.19;100.00
10510;BME280;5303;53.266;10.410;2023-01-29T12:16:57;101917.13;;;6.07;100.00
10510;BME280;5303;53.266;10.410;2023-01-29T12:19:52;101916.31;;;6.18;100.00
10510;BME280;5303;53.266;10.410;2023-01-29T12:22:22;101911.34;;;6.12;100.00
10510;BME280;5303;53.266;10.410;2023-01-29T12:24:55;101904.47;;;6.07;100.00
10510;BME280;5303;53.266;10.410;2023-01-29T12:27:30;101901.59;;;5.98;100.00
10510;BME280;5303;53.266;10.410;2023-01-29T12:32:48;101894.25;;;5.87;100.00
10510;BME280;5303;53.266;10.410;2023-01-29T12:37:58;101894.34;;;5.98;100.00
10510;BME280;5303;53.266;10.410;2023-01-29T12:40:32;101881.31;;;6.03;100.00
10510;BME280;5303;53.266;10.410;2023-01-29T12:43:03;101880.69;;;6.00;100.00
10510;BME280;5303;53.266;10.410;2023-01-29T12:45:31;101871.25;;;6.05;100.00
10510;BME280;5303;53.266;10.410;2023-01-29T12:48:05;101882.34;;;6.14;100.00
10510;BME280;5303;53.266;10.410;2023-01-29T12:50:34;101869.69;;;6.14;100.00
10510;BME280;5303;53.266;10.410;2023-01-29T12:53:26;101862.81;;;6.21;100.00
10510;BME280;5303;53.266;10.410;2023-01-29T12:55:57;101864.84;;;6.06;100.00
10510;BME280;5303;53.266;10.410;2023-01-29T12:58:53;101857.78;;;6.17;100.00
10510;BME280;5303;53.266;10.410;2023-01-29T13:01:26;101861.44;;;6.16;100.00
10510;BME280;5303;53.266;10.410;2023-01-29T13:03:58;101859.19;;;6.10;100.00
10510;BME280;5303;53.266;10.410;2023-01-29T13:06:29;101852.94;;;6.09;100.00
10510;BME280;5303;53.266;10.410;2023-01-29T13:09:00;101856.88;;;6.05;100.00
10510;BME280;5303;53.266;10.410;2023-01-29T13:11:36;101836.78;;;5.96;100.00
10510;BME280;5303;53.266;10.410;2023-01-29T13:14:12;101828.34;;;6.01;100.00
10510;BME280;5303;53.266;10.410;2023-01-29T13:16:43;101829.44;;;5.98;100.00
10510;BME280;5303;53.266;10.410;2023-01-29T13:19:30;101828.72;;;5.83;100.00
10510;BME280;5303;53.266;10.410;2023-01-29T13:22:00;101825.78;;;5.87;100.00
10510;BME280;5303;53.266;10.410;2023-01-29T13:24:32;101825.66;;;6.01;100.00
10510;BME280;5303;53.266;10.410;2023-01-29T13:27:00;101817.75;;;5.98;100.00
10510;BME280;5303;53.266;10.410;2023-01-29T13:29:28;101816.03;;;5.97;100.00
10510;BME280;5303;53.266;10.410;2023-01-29T13:31:58;101807.25;;;5.82;100.00
10510;BME280;5303;53.266;10.410;2023-01-29T13:34:28;101812.13;;;6.01;100.00
10510;BME280;5303;53.266;10.410;2023-01-29T13:37:08;101803.78;;;6.04;100.00
10510;BME280;5303;53.266;10.410;2023-01-29T13:39:39;101795.50;;;5.94;100.00
10510;BME280;5303;53.266;10.410;2023-01-29T13:42:18;101791.50;;;5.87;100.00
10510;BME280;5303;53.266;10.410;2023-01-29T13:44:55;101791.34;;;6.01;100.00
10510;BME280;5303;53.266;10.410;2023-01-29T13:47:26;101797.09;;;5.97;100.00
10510;BME280;5303;53.266;10.410;2023-01-29T13:49:56;101793.44;;;6.09;100.00
10510;BME280;5303;53.266;10.410;2023-01-29T13:52:33;101778.81;;;6.00;100.00
10510;BME280;5303;53.266;10.410;2023-01-29T13:55:02;101786.66;;;6.03;100.00
10510;BME280;5303;53.266;10.410;2023-01-29T14:10:28;101768.00;;;6.00;100.00
10510;BME280;5303;53.266;10.410;2023-01-29T14:15:36;101755.31;;;6.01;100.00
10510;BME280;5303;53.266;10.410;2023-01-29T14:23:06;101745.53;;;5.87;100.00
10510;BME280;5303;53.266;10.410;2023-01-29T14:25:36;101750.84;;;5.89;100.00
10510;BME280;5303;53.266;10.410;2023-01-29T14:28:03;101747.75;;;5.82;100.00
10510;BME280;5303;53.266;10.410;2023-01-29T14:30:31;101740.47;;;5.71;100.00
10510;BME280;5303;53.266;10.410;2023-01-29T14:32:58;101744.91;;;5.83;100.00
10510;BME280;5303;53.266;10.410;2023-01-29T14:35:28;101737.03;;;5.80;100.00
10510;BME280;5303;53.266;10.410;2023-01-29T14:37:59;101731.97;;;5.65;100.00
10510;BME280;5303;53.266;10.410;2023-01-29T14:40:28;101731.63;;;5.80;100.00
10510;BME280;5303;53.266;10.410;2023-01-29T14:45:43;101724.84;;;5.64;100.00
10510;BME280;5303;53.266;10.410;2023-01-29T14:55:49;101722.59;;;5.46;100.00
10510;BME280;5303;53.266;10.410;2023-01-29T14:58:27;101723.78;;;5.42;100.00
10510;BME280;5303;53.266;10.410;2023-01-29T15:00:56;101723.41;;;5.35;100.00